Time;durP1;ratioP1;P1;durP2;ratioP2;P2;SDS_P1;SDS_P2;PMS_P1;PMS_P2;Temp;Humidity;BMP_temperature;BMP_pressure;BME280_temperature;BME280_humidity;BME280_pressure;Samples;Min_cycle;Max_cycle;Signal;HPM_P1;HPM_P2
2022/08/30 00:01:04;;;;;;;5.60;1.17;;;16.60;99.90;;;;;;5097498;28;20174;-69
2022/08/30 00:03:33;;;;;;;4.68;1.00;;;16.50;99.90;;;;;;5091128;28;20044;-69
2022/08/30 00:05:59;;;;;;;2.47;0.90;;;16.50;99.90;;;;;;5095776;28;20070;-69
2022/08/30 00:08:25;;;;;;;4.43;1.15;;;16.50;99.90;;;;;;5093862;28;20067;-68
2022/08/30 00:10:51;;;;;;;4.57;1.08;;;16.50;99.90;;;;;;5109070;28;20055;-69
2022/08/30 00:13:18;;;;;;;3.03;1.05;;;16.50;99.90;;;;;;5091649;28;20498;-78
2022/08/30 00:15:45;;;;;;;7.78;1.20;;;16.50;99.90;;;;;;5100049;28;20058;-68
2022/08/30 00:18:11;;;;;;;4.22;1.20;;;16.50;99.90;;;;;;5106476;28;20031;-69
2022/08/30 00:20:37;;;;;;;1.75;0.90;;;16.50;99.90;;;;;;5098844;28;20055;-68
2022/08/30 00:23:05;;;;;;;5.75;0.90;;;16.50;99.90;;;;;;5104259;28;20063;-89
2022/08/30 00:25:31;;;;;;;1.60;1.20;;;16.40;99.90;;;;;;5111273;28;20089;-69
2022/08/30 00:27:56;;;;;;;5.70;1.08;;;16.40;99.90;;;;;;5102312;28;20040;-68
2022/08/30 00:30:22;;;;;;;2.05;1.33;;;16.40;99.90;;;;;;5105842;28;20114;-69
2022/08/30 00:32:48;;;;;;;8.45;1.38;;;16.40;99.90;;;;;;5085441;28;20185;-90
2022/08/30 00:35:17;;;;;;;6.47;1.50;;;16.40;99.90;;;;;;5087792;28;20047;-69
2022/08/30 00:37:43;;;;;;;6.40;1.38;;;16.40;99.90;;;;;;5091022;28;20040;-89
2022/08/30 00:40:11;;;;;;;3.05;1.52;;;16.30;99.90;;;;;;5105580;28;20040;-69
2022/08/30 00:42:37;;;;;;;6.60;1.10;;;16.30;99.90;;;;;;5099384;28;20509;-69
2022/08/30 00:45:18;;;;;;;4.32;1.13;;;16.20;99.90;;;;;;5108666;28;20516;-69
2022/08/30 00:47:44;;;;;;;3.47;1.17;;;16.20;99.90;;;;;;5109325;28;20082;-69
2022/08/30 00:50:12;;;;;;;1.23;1.00;;;16.10;99.90;;;;;;5108301;28;20039;-69
2022/08/30 00:52:41;;;;;;;2.90;1.15;;;16.00;99.90;;;;;;5096657;28;20089;-69
2022/08/30 00:55:08;;;;;;;7.95;1.08;;;16.00;99.90;;;;;;5109624;28;20112;-69
2022/08/30 00:57:34;;;;;;;4.75;1.08;;;15.90;99.90;;;;;;5109548;27;20044;-69
2022/08/30 01:00:02;;;;;;;2.17;1.02;;;15.90;99.90;;;;;;5109719;28;20126;-68
2022/08/30 01:02:30;;;;;;;5.85;1.02;;;15.90;99.90;;;;;;5104310;28;20555;-69
2022/08/30 01:04:56;;;;;;;4.50;0.73;;;15.80;99.90;;;;;;5101961;28;20375;-68
2022/08/30 01:07:23;;;;;;;1.48;0.73;;;15.80;99.90;;;;;;5102279;28;20105;-69
2022/08/30 01:09:49;;;;;;;4.70;1.20;;;15.80;99.90;;;;;;5088026;28;20447;-68
2022/08/30 01:12:15;;;;;;;3.40;0.90;;;15.70;99.90;;;;;;5089586;28;20097;-73
2022/08/30 01:14:41;;;;;;;4.75;0.80;;;15.70;99.90;;;;;;5108545;28;20105;-69
2022/08/30 01:17:08;;;;;;;3.80;0.80;;;15.70;99.90;;;;;;5101108;28;20446;-73
2022/08/30 01:19:52;;;;;;;2.72;0.80;;;15.70;99.90;;;;;;5107394;28;20085;-69
2022/08/30 01:22:33;;;;;;;5.20;1.10;;;15.60;99.90;;;;;;5102880;28;20043;-69
2022/08/30 01:25:01;;;;;;;1.83;0.85;;;15.60;99.90;;;;;;5092215;28;20089;-69
2022/08/30 01:27:28;;;;;;;3.08;1.20;;;15.60;99.90;;;;;;5107749;28;20533;-86
2022/08/30 01:29:56;;;;;;;4.45;0.88;;;15.60;99.90;;;;;;5108948;28;20035;-69
2022/08/30 01:32:25;;;;;;;4.63;0.90;;;15.50;99.90;;;;;;5107601;27;20032;-69
2022/08/30 01:34:51;;;;;;;1.80;0.77;;;15.50;99.90;;;;;;5107482;28;20036;-69
2022/08/30 01:37:22;;;;;;;4.00;1.00;;;15.50;99.90;;;;;;5108145;28;20164;-68
2022/08/30 01:39:48;;;;;;;0.80;0.80;;;15.40;99.90;;;;;;5094040;28;20038;-69
2022/08/30 01:42:16;;;;;;;3.17;0.82;;;15.40;99.90;;;;;;5108551;28;20044;-89
2022/08/30 01:44:43;;;;;;;4.45;0.93;;;15.40;99.90;;;;;;5093335;28;20051;-69
2022/08/30 01:47:10;;;;;;;1.95;0.88;;;15.40;99.90;;;;;;5095628;28;20397;-69
2022/08/30 01:49:36;;;;;;;1.10;0.80;;;15.40;99.90;;;;;;5105102;28;20039;-91
2022/08/30 01:52:02;;;;;;;4.22;1.08;;;15.40;99.90;;;;;;5080083;28;20505;-68
2022/08/30 01:54:30;;;;;;;3.38;0.90;;;15.30;99.90;;;;;;5107758;28;20442;-87
2022/08/30 01:56:56;;;;;;;1.30;0.70;;;15.30;99.90;;;;;;5099199;28;20043;-69
2022/08/30 01:59:21;;;;;;;0.82;0.82;;;15.30;99.90;;;;;;5107922;28;20069;-94
2022/08/30 02:01:47;;;;;;;4.00;0.98;;;15.30;99.90;;;;;;5093476;28;20076;-69
2022/08/30 02:04:13;;;;;;;3.42;1.10;;;15.30;99.90;;;;;;5108919;28;20365;-69
2022/08/30 02:06:39;;;;;;;2.65;0.93;;;15.30;99.90;;;;;;5107747;28;20547;-82
2022/08/30 02:09:05;;;;;;;3.70;1.10;;;15.20;99.90;;;;;;5107505;28;20063;-69
2022/08/30 02:11:30;;;;;;;3.40;0.90;;;15.30;99.90;;;;;;5107386;28;20050;-72
2022/08/30 02:13:56;;;;;;;3.70;1.08;;;15.30;99.90;;;;;;5093693;28;20044;-91
2022/08/30 02:16:23;;;;;;;5.90;1.20;;;15.30;99.90;;;;;;5106416;28;20047;-69
2022/08/30 02:18:51;;;;;;;2.22;0.73;;;15.30;99.90;;;;;;5098565;28;20498;-68
2022/08/30 02:21:17;;;;;;;3.42;0.68;;;15.40;99.90;;;;;;5103669;28;20577;-69
2022/08/30 02:23:43;;;;;;;1.38;0.85;;;15.40;99.90;;;;;;5131540;27;20118;-69
2022/08/30 02:26:11;;;;;;;4.60;1.45;;;15.40;99.90;;;;;;5107096;28;20113;-68
2022/08/30 02:28:37;;;;;;;3.40;1.30;;;15.50;99.90;;;;;;5134863;27;20124;-70
2022/08/30 02:31:03;;;;;;;3.75;1.00;;;15.50;99.90;;;;;;5104220;28;20077;-96
2022/08/30 02:33:28;;;;;;;1.38;1.23;;;15.60;99.90;;;;;;5087876;28;20428;-69
2022/08/30 02:35:55;;;;;;;5.85;0.80;;;15.50;99.90;;;;;;5100364;28;20062;-69
2022/08/30 02:38:22;;;;;;;18.23;1.55;;;15.60;99.90;;;;;;5089217;28;20524;-70
2022/08/30 02:40:48;;;;;;;2.97;0.98;;;15.60;99.90;;;;;;5106065;28;20063;-69
2022/08/30 02:43:15;;;;;;;1.15;0.75;;;15.60;99.90;;;;;;5105034;28;20553;-69
2022/08/30 02:45:40;;;;;;;7.97;0.80;;;15.60;99.90;;;;;;5095572;28;20520;-92
2022/08/30 02:48:06;;;;;;;2.83;0.73;;;15.70;99.90;;;;;;5107489;28;20051;-69
2022/08/30 02:50:32;;;;;;;2.20;1.00;;;15.70;99.90;;;;;;5095966;28;20039;-68
2022/08/30 02:52:58;;;;;;;2.92;0.85;;;15.70;99.90;;;;;;5106417;28;20050;-94
2022/08/30 02:55:24;;;;;;;2.67;0.80;;;15.70;99.90;;;;;;5140748;27;20048;-69
2022/08/30 02:57:49;;;;;;;3.63;0.90;;;15.70;99.90;;;;;;5107054;28;20046;-96
2022/08/30 03:00:19;;;;;;;5.90;0.80;;;15.60;99.90;;;;;;5106885;28;20288;-69
2022/08/30 03:02:44;;;;;;;3.05;1.20;;;15.60;99.90;;;;;;5101075;28;20033;-92
2022/08/30 03:05:11;;;;;;;3.40;0.90;;;15.70;99.90;;;;;;5107283;28;20038;-69
2022/08/30 03:07:38;;;;;;;4.18;1.23;;;15.70;99.90;;;;;;5107843;28;20451;-69
2022/08/30 03:10:05;;;;;;;3.13;0.88;;;15.70;99.90;;;;;;5105837;28;20048;-72
2022/08/30 03:12:32;;;;;;;3.35;0.90;;;15.70;99.90;;;;;;5107271;28;20043;-69
2022/08/30 03:14:58;;;;;;;4.93;0.77;;;15.70;99.90;;;;;;5106906;28;20047;-87
2022/08/30 03:17:23;;;;;;;10.02;1.02;;;15.60;99.90;;;;;;5108509;28;20063;-69
2022/08/30 03:19:50;;;;;;;2.58;0.95;;;15.60;99.90;;;;;;5105144;28;20508;-68
2022/08/30 03:22:17;;;;;;;1.13;0.90;;;15.60;99.90;;;;;;5133378;27;20032;-69
2022/08/30 03:24:44;;;;;;;3.95;0.90;;;15.70;99.90;;;;;;5106901;28;20032;-69
2022/08/30 03:27:11;;;;;;;2.25;0.98;;;15.70;99.90;;;;;;5106842;28;20428;-69
2022/08/30 03:29:38;;;;;;;7.63;1.40;;;15.70;99.90;;;;;;5110212;28;20122;-68
2022/08/30 03:32:05;;;;;;;4.13;1.20;;;15.70;99.90;;;;;;5107647;28;20074;-69
2022/08/30 03:34:31;;;;;;;4.18;1.10;;;15.70;99.90;;;;;;5109842;28;20079;-70
2022/08/30 03:36:57;;;;;;;3.47;1.00;;;15.60;99.90;;;;;;5106046;28;20131;-69
2022/08/30 03:39:24;;;;;;;4.72;1.25;;;15.60;99.90;;;;;;5107921;28;20036;-69
2022/08/30 03:41:50;;;;;;;4.82;1.30;;;15.60;99.90;;;;;;5085062;28;20429;-69
2022/08/30 03:44:16;;;;;;;1.38;1.05;;;15.60;99.90;;;;;;5088139;28;20039;-68
2022/08/30 03:46:42;;;;;;;2.40;1.15;;;15.60;99.90;;;;;;5106502;28;20092;-69
2022/08/30 03:49:08;;;;;;;7.90;1.25;;;15.50;99.90;;;;;;5106115;28;20044;-69
2022/08/30 03:51:34;;;;;;;4.32;1.20;;;15.50;99.90;;;;;;5135986;27;20045;-71
2022/08/30 03:54:00;;;;;;;4.22;1.17;;;15.50;99.90;;;;;;5104516;28;20044;-69
2022/08/30 03:56:26;;;;;;;4.20;1.10;;;15.50;99.90;;;;;;5106808;28;20047;-83
2022/08/30 03:58:51;;;;;;;6.05;1.45;;;15.50;99.90;;;;;;5120486;22;20071;-73
2022/08/30 04:01:17;;;;;;;1.88;1.20;;;15.50;99.90;;;;;;5010615;28;20053;-73
2022/08/30 04:03:43;;;;;;;2.95;1.35;;;15.50;99.90;;;;;;5012314;28;20033;-73
2022/08/30 04:06:09;;;;;;;4.38;1.30;;;15.50;99.90;;;;;;5026861;28;20120;-73
2022/08/30 04:08:35;;;;;;;5.80;2.22;;;15.50;99.90;;;;;;5028887;28;20068;-73
2022/08/30 04:11:01;;;;;;;4.32;1.42;;;15.50;99.90;;;;;;5045046;28;20075;-73
2022/08/30 04:13:28;;;;;;;3.53;1.30;;;15.50;99.90;;;;;;5031222;28;20049;-73
2022/08/30 04:15:54;;;;;;;4.85;1.20;;;15.50;99.90;;;;;;5041195;28;20049;-73
2022/08/30 04:18:20;;;;;;;1.65;0.95;;;15.40;99.90;;;;;;5047709;28;20049;-73
2022/08/30 04:20:46;;;;;;;5.32;1.42;;;15.40;99.90;;;;;;5032522;28;20494;-73
2022/08/30 04:23:13;;;;;;;5.30;1.20;;;15.40;99.90;;;;;;5025608;28;20205;-73
2022/08/30 04:25:40;;;;;;;2.78;1.13;;;15.40;99.90;;;;;;5025492;28;20066;-73
2022/08/30 04:28:07;;;;;;;4.07;1.10;;;15.40;99.90;;;;;;5014682;28;20044;-73
2022/08/30 04:30:32;;;;;;;1.45;0.95;;;15.40;99.90;;;;;;5047655;28;20056;-73
2022/08/30 04:32:59;;;;;;;3.17;1.70;;;15.30;99.90;;;;;;5031634;28;20330;-73
2022/08/30 04:35:25;;;;;;;2.17;1.30;;;15.30;99.90;;;;;;5031087;28;20068;-73
2022/08/30 04:37:51;;;;;;;1.83;0.98;;;15.30;99.90;;;;;;5032228;28;20041;-73
2022/08/30 04:40:17;;;;;;;3.20;1.40;;;15.30;99.90;;;;;;5045115;28;20202;-73
2022/08/30 04:42:43;;;;;;;5.03;1.33;;;15.30;99.90;;;;;;5025522;28;20056;-73
2022/08/30 04:45:14;;;;;;;9.02;1.38;;;15.30;99.90;;;;;;5013817;28;20033;-73
2022/08/30 04:47:41;;;;;;;8.43;1.83;;;15.30;99.90;;;;;;5048750;28;20170;-74
2022/08/30 04:50:09;;;;;;;1.80;1.25;;;15.30;99.90;;;;;;5048110;28;20033;-73
2022/08/30 04:52:36;;;;;;;2.05;1.00;;;15.20;99.90;;;;;;5029113;28;20052;-73
2022/08/30 04:55:03;;;;;;;2.35;1.33;;;15.20;99.90;;;;;;5047852;28;20121;-73
2022/08/30 04:57:28;;;;;;;7.07;1.23;;;15.20;99.90;;;;;;5046757;28;20128;-73
2022/08/30 04:59:55;;;;;;;9.00;1.17;;;15.20;99.90;;;;;;5048352;28;20143;-73
2022/08/30 05:02:21;;;;;;;2.97;1.27;;;15.20;99.90;;;;;;5009723;28;20053;-73
2022/08/30 05:07:31;;;;;;;5.22;1.70;;;15.10;99.90;;;;;;5019137;28;20041;-72
2022/08/30 05:09:57;;;;;;;2.88;1.00;;;15.20;99.90;;;;;;5030235;28;20045;-73
2022/08/30 05:12:23;;;;;;;3.17;1.17;;;15.20;99.90;;;;;;5043991;28;20099;-73
2022/08/30 05:14:49;;;;;;;3.47;1.17;;;15.10;99.90;;;;;;5030321;28;20040;-73
2022/08/30 05:17:14;;;;;;;4.15;1.33;;;15.10;99.90;;;;;;5047733;28;20049;-73
2022/08/30 05:19:40;;;;;;;5.20;1.80;;;15.10;99.90;;;;;;5029876;28;20071;-73
2022/08/30 05:22:06;;;;;;;5.78;1.63;;;15.10;99.90;;;;;;5002510;28;20088;-73
2022/08/30 05:24:33;;;;;;;8.75;1.38;;;15.00;99.90;;;;;;5014773;28;20549;-73
2022/08/30 05:26:59;;;;;;;3.97;1.45;;;15.00;99.90;;;;;;5047007;28;20041;-72
2022/08/30 05:29:25;;;;;;;3.45;1.63;;;15.00;99.90;;;;;;5046794;28;20135;-73
2022/08/30 05:31:50;;;;;;;3.92;1.30;;;15.00;99.90;;;;;;5013230;28;20045;-72
2022/08/30 05:34:16;;;;;;;2.05;1.00;;;15.00;99.90;;;;;;5046828;28;20049;-73
2022/08/30 05:36:42;;;;;;;4.57;1.25;;;14.90;99.90;;;;;;5029308;28;20079;-72
2022/08/30 05:39:09;;;;;;;2.17;1.10;;;14.90;99.90;;;;;;5047652;28;20049;-73
2022/08/30 05:41:36;;;;;;;3.78;1.08;;;14.90;99.90;;;;;;5029797;28;20037;-73
2022/08/30 05:44:03;;;;;;;5.20;1.08;;;14.90;99.90;;;;;;5041285;28;20056;-72
2022/08/30 05:46:32;;;;;;;3.17;1.10;;;14.90;99.90;;;;;;5026958;28;20106;-72
2022/08/30 05:49:00;;;;;;;3.03;0.90;;;14.90;99.90;;;;;;5037119;28;20502;-72
2022/08/30 05:51:27;;;;;;;11.23;1.13;;;15.00;99.90;;;;;;5030237;28;20084;-72
2022/08/30 05:53:54;;;;;;;4.28;1.23;;;15.10;99.90;;;;;;5028843;28;20115;-72
2022/08/30 05:56:24;;;;;;;5.40;1.13;;;15.20;99.90;;;;;;5046791;28;20084;-72
2022/08/30 05:58:50;;;;;;;2.67;1.08;;;15.20;99.90;;;;;;4995746;28;20062;-72
2022/08/30 06:01:21;;;;;;;3.65;1.00;;;15.30;99.90;;;;;;5039865;28;20062;-71
2022/08/30 06:03:49;;;;;;;4.03;1.02;;;15.40;99.90;;;;;;5025792;28;20041;-72
2022/08/30 06:06:15;;;;;;;1.70;0.82;;;15.50;99.90;;;;;;5040543;28;20044;-72
2022/08/30 06:08:44;;;;;;;1.75;0.90;;;15.50;99.90;;;;;;5038632;28;20047;-71
2022/08/30 06:11:11;;;;;;;9.37;1.27;;;15.60;99.90;;;;;;5024615;28;20045;-71
2022/08/30 06:13:37;;;;;;;4.07;1.10;;;15.60;99.90;;;;;;5043645;28;20052;-72
2022/08/30 06:16:03;;;;;;;2.53;1.38;;;15.70;99.90;;;;;;5027173;28;20037;-71
2022/08/30 06:18:29;;;;;;;4.60;0.90;;;15.70;99.90;;;;;;5026188;28;20053;-72
2022/08/30 06:20:54;;;;;;;2.10;1.23;;;15.80;99.90;;;;;;5026557;28;20068;-71
2022/08/30 06:23:21;;;;;;;8.13;0.93;;;15.80;99.90;;;;;;5041997;28;20187;-72
2022/08/30 06:25:46;;;;;;;2.00;1.17;;;15.80;99.90;;;;;;5026986;28;20061;-72
2022/08/30 06:28:12;;;;;;;2.08;1.05;;;15.80;99.90;;;;;;5024969;28;20080;-72
2022/08/30 06:30:40;;;;;;;2.50;0.80;;;15.90;99.90;;;;;;5025961;28;20128;-71
2022/08/30 06:33:05;;;;;;;1.58;0.90;;;15.90;99.90;;;;;;5039930;28;20180;-72
2022/08/30 06:35:31;;;;;;;9.35;1.25;;;15.90;99.90;;;;;;5025154;28;20064;-71
2022/08/30 06:37:58;;;;;;;0.80;0.80;;;16.00;99.90;;;;;;5025386;28;20530;-71
2022/08/30 06:40:24;;;;;;;4.88;0.90;;;16.00;99.90;;;;;;5024381;28;20179;-72
2022/08/30 06:42:50;;;;;;;2.15;1.00;;;16.00;99.90;;;;;;5012463;28;20490;-72
2022/08/30 06:45:17;;;;;;;2.38;1.02;;;16.00;99.90;;;;;;5023998;28;20429;-72
2022/08/30 06:47:43;;;;;;;4.88;1.40;;;16.10;99.90;;;;;;5027765;28;20069;-72
2022/08/30 06:50:11;;;;;;;5.88;1.52;;;16.20;99.90;;;;;;5008252;28;20049;-71
2022/08/30 06:52:37;;;;;;;2.53;1.00;;;16.20;99.90;;;;;;5026080;28;20395;-71
2022/08/30 06:55:03;;;;;;;1.15;0.73;;;16.30;99.90;;;;;;5025469;28;20461;-71
2022/08/30 06:57:29;;;;;;;0.85;0.85;;;16.40;99.90;;;;;;5021348;28;20049;-71
2022/08/30 06:59:56;;;;;;;4.45;1.15;;;16.50;99.90;;;;;;5025423;28;20072;-70
2022/08/30 07:02:22;;;;;;;3.75;1.20;;;16.60;99.90;;;;;;5023757;28;20052;-71
2022/08/30 07:04:48;;;;;;;2.65;0.93;;;16.70;99.90;;;;;;5042680;28;20262;-71
2022/08/30 07:07:14;;;;;;;1.58;0.95;;;17.00;99.90;;;;;;5022461;28;20530;-72
2022/08/30 07:09:42;;;;;;;1.77;0.90;;;17.20;99.90;;;;;;5026221;28;20087;-71
2022/08/30 07:12:10;;;;;;;2.25;1.05;;;17.40;99.90;;;;;;5040886;28;20487;-71
2022/08/30 07:14:36;;;;;;;2.28;0.90;;;17.70;99.90;;;;;;5025705;28;20045;-72
2022/08/30 07:18:49;;;;;;;6.85;1.17;;;17.90;95.90;;;;;;5032363;28;20053;-71
2022/08/30 07:19:48;;;;;;;4.43;1.00;;;18.10;98.60;;;;;;5011131;28;20090;-70
2022/08/30 07:22:14;;;;;;;3.42;0.98;;;18.30;92.10;;;;;;5009106;28;20041;-70
2022/08/30 07:24:39;;;;;;;2.15;0.88;;;18.30;90.20;;;;;;5028638;28;20048;-70
2022/08/30 07:27:05;;;;;;;1.67;1.00;;;18.40;88.40;;;;;;5004327;28;20046;-70
2022/08/30 07:29:31;;;;;;;5.70;1.05;;;18.50;92.20;;;;;;5019977;28;20053;-70
2022/08/30 07:31:56;;;;;;;1.70;0.70;;;18.70;86.30;;;;;;5024042;28;20053;-71
2022/08/30 07:34:22;;;;;;;5.50;1.00;;;18.80;91.40;;;;;;5040786;28;20080;-70
2022/08/30 07:36:48;;;;;;;2.95;0.93;;;18.90;83.50;;;;;;5022113;28;20124;-70
2022/08/30 07:39:14;;;;;;;2.08;0.90;;;19.00;79.30;;;;;;5007739;28;20080;-71
2022/08/30 07:41:39;;;;;;;4.85;0.93;;;19.20;76.80;;;;;;5023842;28;20486;-70
2022/08/30 07:44:07;;;;;;;1.15;0.70;;;19.20;72.90;;;;;;5041752;28;20144;-70
2022/08/30 07:46:33;;;;;;;1.95;0.80;;;19.30;81.20;;;;;;5038525;28;20118;-71
2022/08/30 07:48:59;;;;;;;7.45;0.70;;;19.40;72.00;;;;;;5040689;28;20152;-71
2022/08/30 07:51:26;;;;;;;5.75;1.00;;;19.50;74.60;;;;;;5040488;28;20108;-71
2022/08/30 07:53:53;;;;;;;3.83;0.90;;;19.60;75.70;;;;;;5024404;28;20042;-71
2022/08/30 07:56:19;;;;;;;1.75;0.70;;;19.70;73.60;;;;;;5036273;28;20045;-70
2022/08/30 07:58:45;;;;;;;0.70;0.70;;;19.80;71.00;;;;;;5006280;28;20103;-71
2022/08/30 08:01:12;;;;;;;7.90;0.93;;;19.80;71.60;;;;;;5023920;28;20038;-71
2022/08/30 08:03:41;;;;;;;2.15;0.85;;;19.90;57.20;;;;;;5022868;28;20044;-71
2022/08/30 08:06:10;;;;;;;1.48;0.70;;;19.90;51.80;;;;;;5025114;28;20407;-69
2022/08/30 08:08:36;;;;;;;1.88;0.77;;;19.90;58.10;;;;;;5023027;28;20060;-70
2022/08/30 08:11:07;;;;;;;0.95;0.63;;;19.90;56.90;;;;;;5024018;28;20107;-72
2022/08/30 08:13:34;;;;;;;5.57;0.82;;;20.00;70.00;;;;;;5023550;28;20081;-71
2022/08/30 08:16:00;;;;;;;5.78;0.90;;;20.00;57.50;;;;;;5040189;28;20092;-70
2022/08/30 08:18:25;;;;;;;0.85;0.85;;;19.90;52.30;;;;;;5003433;28;20085;-70
2022/08/30 08:20:51;;;;;;;2.80;0.80;;;19.80;47.50;;;;;;5006873;28;20122;-71
2022/08/30 08:23:17;;;;;;;3.90;0.80;;;19.70;55.40;;;;;;5024584;28;20710;-71
2022/08/30 08:25:42;;;;;;;2.78;1.00;;;19.90;70.10;;;;;;5007116;28;20056;-71
2022/08/30 08:28:08;;;;;;;0.70;0.63;;;20.00;61.60;;;;;;4991957;28;20072;-71
2022/08/30 08:30:36;;;;;;;2.78;1.17;;;20.10;53.70;;;;;;5003599;28;20501;-71
2022/08/30 08:33:04;;;;;;;3.10;0.90;;;20.20;52.60;;;;;;5004855;28;20041;-73
2022/08/30 08:35:30;;;;;;;2.65;0.90;;;20.20;51.10;;;;;;5024764;28;20372;-71
2022/08/30 08:37:56;;;;;;;1.50;0.80;;;20.40;42.80;;;;;;5023603;28;20510;-71
2022/08/30 08:40:22;;;;;;;1.75;0.80;;;20.30;43.60;;;;;;5024535;28;20042;-72
2022/08/30 08:42:56;;;;;;;5.80;0.88;;;20.00;48.00;;;;;;5006856;28;20511;-71
2022/08/30 08:45:51;;;;;;;1.65;0.93;;;20.10;55.40;;;;;;5005079;28;20554;-71
2022/08/30 08:48:42;;;;;;;2.50;0.98;;;20.00;54.00;;;;;;5014528;28;20049;-72
2022/08/30 08:54:05;;;;;;;3.70;0.90;;;19.80;52.70;;;;;;5023015;28;20045;-72
2022/08/30 08:56:32;;;;;;;4.22;0.90;;;19.70;55.80;;;;;;5024033;28;20503;-72
2022/08/30 08:58:58;;;;;;;1.52;1.00;;;20.00;63.90;;;;;;5027329;28;20167;-72
2022/08/30 09:01:26;;;;;;;3.75;0.85;;;20.30;63.50;;;;;;5011075;28;20483;-71
2022/08/30 09:03:54;;;;;;;0.65;0.60;;;20.30;47.20;;;;;;5042706;28;20045;-72
2022/08/30 09:06:45;;;;;;;1.88;0.70;;;20.50;58.30;;;;;;5027771;28;20053;-72
2022/08/30 09:09:12;;;;;;;2.58;0.65;;;20.70;40.30;;;;;;5025729;28;20086;-71
2022/08/30 09:11:40;;;;;;;1.45;0.80;;;20.70;50.90;;;;;;5024851;28;20045;-72
2022/08/30 09:14:12;;;;;;;2.97;0.98;;;20.90;46.30;;;;;;5028286;28;20041;-72
2022/08/30 09:16:48;;;;;;;2.47;0.77;;;21.00;47.00;;;;;;5042274;28;20557;-71
2022/08/30 09:19:42;;;;;;;1.40;0.63;;;21.20;34.50;;;;;;5044636;28;20573;-72
2022/08/30 09:22:11;;;;;;;9.23;0.60;;;21.30;30.20;;;;;;5024565;28;20053;-69
2022/08/30 09:24:44;;;;;;;4.97;0.80;;;21.40;34.80;;;;;;5004687;28;20041;-68
2022/08/30 09:27:16;;;;;;;5.05;1.15;;;21.20;28.60;;;;;;5027846;28;20026;-69
2022/08/30 09:29:58;;;;;;;2.60;0.60;;;21.30;27.70;;;;;;5008016;28;20378;-69
2022/08/30 09:32:30;;;;;;;2.28;0.68;;;21.50;24.70;;;;;;5025586;28;20053;-69
2022/08/30 09:34:57;;;;;;;0.95;0.63;;;21.50;29.10;;;;;;5039256;28;20429;-69
2022/08/30 09:37:28;;;;;;;0.95;0.50;;;21.60;19.00;;;;;;5024559;28;20483;-69
2022/08/30 09:39:54;;;;;;;1.05;0.70;;;21.50;18.50;;;;;;5028938;28;20049;-69
2022/08/30 09:42:24;;;;;;;1.40;0.70;;;21.50;19.20;;;;;;5026010;28;20049;-69
2022/08/30 09:44:52;;;;;;;1.23;0.70;;;21.40;18.20;;;;;;5020207;28;20049;-69
2022/08/30 09:47:30;;;;;;;3.03;0.80;;;21.40;18.80;;;;;;5009585;28;20065;-69
2022/08/30 09:50:18;;;;;;;1.27;0.80;;;21.30;22.40;;;;;;5027996;28;20054;-69
2022/08/30 09:53:10;;;;;;;3.90;0.70;;;21.30;21.70;;;;;;5026902;28;20554;-68
2022/08/30 09:55:59;;;;;;;1.65;0.80;;;21.20;18.30;;;;;;5020220;28;20041;-69
2022/08/30 09:58:31;;;;;;;;;;;21.30;32.00;;;;;;5024277;28;20061;-69
2022/08/30 10:01:19;;;;;;;2.75;0.93;;;21.30;22.50;;;;;;5008956;28;19932;-69
2022/08/30 10:03:51;;;;;;;2.13;1.00;;;21.40;29.10;;;;;;5024086;28;20237;-69
2022/08/30 10:06:41;;;;;;;2.85;0.90;;;21.30;24.50;;;;;;5021911;28;20091;-70
2022/08/30 10:09:27;;;;;;;6.00;0.70;;;21.20;26.40;;;;;;5008602;28;20380;-68
2022/08/30 10:12:12;;;;;;;3.20;0.60;;;21.30;29.10;;;;;;5026849;28;20139;-68
2022/08/30 10:14:45;;;;;;;4.68;0.80;;;21.50;18.60;;;;;;5013341;28;20042;-69
2022/08/30 10:17:19;;;;;;;7.43;0.90;;;21.60;23.40;;;;;;5024321;28;20049;-69
2022/08/30 10:19:54;;;;;;;4.22;0.80;;;21.70;16.80;;;;;;5013232;28;20037;-69
2022/08/30 10:22:45;;;;;;;1.67;0.80;;;21.90;17.00;;;;;;5026997;28;20487;-69
2022/08/30 10:25:25;;;;;;;1.55;0.90;;;22.00;16.70;;;;;;5016991;28;20054;-69
2022/08/30 10:27:57;;;;;;;8.30;0.90;;;22.10;21.60;;;;;;5025484;28;20096;-69
2022/08/30 10:30:23;;;;;;;3.35;1.20;;;22.20;20.80;;;;;;5041574;28;20049;-69
2022/08/30 10:33:05;;;;;;;3.80;0.80;;;22.20;17.30;;;;;;5025687;28;20430;-70
2022/08/30 10:35:52;;;;;;;4.70;1.10;;;22.10;17.50;;;;;;5041640;28;20128;-69
2022/08/30 10:38:22;;;;;;;4.38;0.70;;;22.10;19.70;;;;;;5038977;28;20038;-70
2022/08/30 10:41:12;;;;;;;4.95;0.93;;;22.20;18.00;;;;;;5026460;28;20132;-69
2022/08/30 10:44:04;;;;;;;1.95;1.02;;;22.20;17.40;;;;;;5026464;28;20038;-69
2022/08/30 10:46:36;;;;;;;1.83;0.90;;;22.30;18.00;;;;;;5020581;28;20053;-69
2022/08/30 10:49:04;;;;;;;2.15;0.80;;;22.40;15.60;;;;;;5021332;28;20052;-69
2022/08/30 10:51:34;;;;;;;3.70;1.07;;;22.30;16.90;;;;;;5021939;28;20037;-69
2022/08/30 10:54:07;;;;;;;4.78;1.02;;;22.20;17.10;;;;;;5024018;28;20061;-69
2022/08/30 10:56:39;;;;;;;1.08;0.80;;;22.10;12.40;;;;;;5025466;28;20034;-69
2022/08/30 10:59:05;;;;;;;2.45;0.98;;;22.10;16.80;;;;;;5021425;28;20219;-67
2022/08/30 11:02:27;;;;;;;3.40;0.60;;;22.10;12.90;;;;;;5004691;28;20395;-67
2022/08/30 11:05:05;;;;;;;0.73;0.70;;;21.90;17.70;;;;;;4894610;29;20044;-67
2022/08/30 11:07:58;;;;;;;2.00;0.70;;;21.90;16.50;;;;;;5005402;28;20081;-67
2022/08/30 11:10:35;;;;;;;7.53;1.10;;;22.00;14.10;;;;;;5024103;28;20288;-67
2022/08/30 11:13:09;;;;;;;1.80;0.85;;;22.10;16.00;;;;;;5041307;28;20498;-67
2022/08/30 11:16:14;;;;;;;0.73;0.70;;;21.90;16.10;;;;;;5027032;28;20442;-67
2022/08/30 11:18:52;;;;;;;3.25;0.90;;;21.80;14.20;;;;;;5025034;28;20042;-67
2022/08/30 11:21:40;;;;;;;3.53;0.93;;;21.60;14.60;;;;;;5024806;28;20044;-67
2022/08/30 11:24:15;;;;;;;1.75;0.63;;;21.50;14.90;;;;;;5025902;28;20056;-68
2022/08/30 11:26:43;;;;;;;1.00;0.70;;;21.40;18.80;;;;;;5024118;28;20128;-67
2022/08/30 11:29:26;;;;;;;3.03;0.65;;;21.50;19.70;;;;;;5035132;28;20050;-68
2022/08/30 11:31:53;;;;;;;3.38;0.90;;;21.60;20.70;;;;;;5015325;28;20061;-68
2022/08/30 11:34:44;;;;;;;1.73;0.70;;;21.90;23.80;;;;;;5026266;28;20081;-68
2022/08/30 11:37:34;;;;;;;2.55;0.73;;;22.00;15.60;;;;;;5042874;28;20479;-67
2022/08/30 11:40:05;;;;;;;3.10;0.70;;;21.90;13.30;;;;;;5024144;28;20529;-67
2022/08/30 11:42:35;;;;;;;2.88;0.70;;;21.90;17.50;;;;;;5042200;28;20064;-67
2022/08/30 11:45:23;;;;;;;2.42;0.73;;;21.90;19.40;;;;;;5025669;28;20049;-68
2022/08/30 11:47:58;;;;;;;2.60;0.47;;;21.90;19.60;;;;;;5022286;28;20089;-68
2022/08/30 11:50:32;;;;;;;1.90;0.60;;;21.90;15.70;;;;;;5036758;28;20044;-67
2022/08/30 11:53:17;;;;;;;3.60;0.57;;;21.90;21.50;;;;;;5040379;28;20054;-67
2022/08/30 11:55:57;;;;;;;2.05;0.80;;;21.80;15.70;;;;;;5012858;28;20042;-68
2022/08/30 11:58:41;;;;;;;2.25;0.50;;;21.80;18.10;;;;;;5025120;28;20061;-67
2022/08/30 12:01:25;;;;;;;5.97;0.47;;;21.70;15.70;;;;;;5020782;28;20053;-68
2022/08/30 12:04:09;;;;;;;1.20;0.90;;;21.50;14.30;;;;;;5008290;28;20431;-68
2022/08/30 12:06:38;;;;;;;0.50;0.50;;;21.50;16.30;;;;;;5041817;28;20049;-67
2022/08/30 12:09:05;;;;;;;4.05;0.80;;;21.50;15.50;;;;;;5011594;28;20103;-67
2022/08/30 12:11:30;;;;;;;0.77;0.57;;;21.60;19.80;;;;;;5025004;28;20046;-68
2022/08/30 12:13:56;;;;;;;2.30;0.60;;;21.80;23.40;;;;;;5039833;28;20451;-68
2022/08/30 12:19:33;;;;;;;0.63;0.63;;;22.00;18.90;;;;;;4999644;28;20491;-68
2022/08/30 12:22:05;;;;;;;2.65;0.60;;;22.00;14.90;;;;;;5029622;28;20116;-68
2022/08/30 12:24:35;;;;;;;0.85;0.60;;;21.80;18.10;;;;;;5024581;28;20037;-68
2022/08/30 12:27:19;;;;;;;0.52;0.50;;;21.80;17.80;;;;;;5039768;28;20046;-68
2022/08/30 12:29:58;;;;;;;2.17;0.70;;;21.90;15.70;;;;;;5024597;28;20107;-68
2022/08/30 12:32:25;;;;;;;1.25;0.60;;;22.10;17.40;;;;;;5041054;28;20159;-68
2022/08/30 12:35:00;;;;;;;0.60;0.60;;;22.20;15.30;;;;;;5043839;28;20053;-68
2022/08/30 12:37:32;;;;;;;1.00;0.50;;;22.20;17.70;;;;;;5030400;28;20045;-68
2022/08/30 12:40:16;;;;;;;0.85;0.50;;;22.10;16.90;;;;;;5027237;28;20068;-69
2022/08/30 12:42:55;;;;;;;0.60;0.60;;;21.90;16.70;;;;;;5027618;28;20042;-68
2022/08/30 12:45:23;;;;;;;;;;;21.90;16.40;;;;;;4999845;28;20045;-68
2022/08/30 12:48:03;;;;;;;0.75;0.50;;;21.90;14.70;;;;;;5026931;28;19983;-67
2022/08/30 12:50:52;;;;;;;1.38;0.50;;;21.80;14.90;;;;;;5017417;28;20041;-68
2022/08/30 12:53:43;;;;;;;1.48;0.75;;;21.90;20.50;;;;;;5013659;28;20137;-68
2022/08/30 12:56:14;;;;;;;0.52;0.52;;;21.80;18.50;;;;;;5022061;28;20069;-68
2022/08/30 12:58:49;;;;;;;2.35;0.50;;;21.80;16.70;;;;;;5020429;28;20094;-68
2022/08/30 13:01:27;;;;;;;0.60;0.50;;;21.80;25.70;;;;;;5028061;28;20108;-68
2022/08/30 13:04:16;;;;;;;1.92;0.70;;;21.80;24.00;;;;;;5026531;28;20057;-68
2022/08/30 13:06:48;;;;;;;2.80;0.50;;;22.00;28.80;;;;;;5044188;28;20047;-68
2022/08/30 13:09:22;;;;;;;1.02;0.50;;;22.10;22.20;;;;;;5027065;28;20492;-68
2022/08/30 13:11:49;;;;;;;2.55;0.50;;;22.20;24.10;;;;;;5029674;28;20122;-68